Time;durP1;ratioP1;P1;durP2;ratioP2;P2;SDS_P1;SDS_P2;PMS_P1;PMS_P2;Temp;Humidity;BMP_temperature;BMP_pressure;BME280_temperature;BME280_humidity;BME280_pressure;Samples;Min_cycle;Max_cycle;Signal;HPM_P1;HPM_P2
2022/04/11 00:00:20;;;;;;;9.67;8.67;;;9.60;54.80;;;;;;5011122;28;20178;-84
2022/04/11 00:02:46;;;;;;;10.80;8.87;;;9.60;54.90;;;;;;5004758;28;20191;-85
2022/04/11 00:05:11;;;;;;;15.30;9.00;;;9.50;55.00;;;;;;4999748;28;20417;-84
2022/04/11 00:07:37;;;;;;;10.33;8.80;;;9.50;55.10;;;;;;4999815;28;20206;-83
2022/04/11 00:10:03;;;;;;;14.37;9.13;;;9.50;55.30;;;;;;4999814;28;20178;-85
2022/04/11 00:12:34;;;;;;;13.77;8.97;;;9.50;55.20;;;;;;5016833;28;20410;-84
2022/04/11 00:15:00;;;;;;;13.02;8.75;;;9.50;55.10;;;;;;4999876;28;20863;-85
2022/04/11 00:17:27;;;;;;;12.43;9.48;;;9.60;55.10;;;;;;4999793;28;20174;-84
2022/04/11 00:19:52;;;;;;;11.75;9.02;;;9.60;55.00;;;;;;5017262;28;20309;-84
2022/04/11 00:22:18;;;;;;;12.43;9.27;;;9.60;54.90;;;;;;5000096;28;20202;-84
2022/04/11 00:24:44;;;;;;;15.27;9.40;;;9.60;54.80;;;;;;4998047;28;20590;-85
2022/04/11 00:27:10;;;;;;;9.70;8.10;;;9.50;54.90;;;;;;4981389;28;20255;-84
2022/04/11 00:29:36;;;;;;;12.77;10.25;;;9.50;55.00;;;;;;4981557;28;20203;-84
2022/04/11 00:32:01;;;;;;;13.17;9.33;;;9.50;55.00;;;;;;4997502;28;20226;-84
2022/04/11 00:34:27;;;;;;;12.20;9.57;;;9.50;55.40;;;;;;4997493;28;20184;-84
2022/04/11 00:36:53;;;;;;;11.67;8.70;;;9.50;55.20;;;;;;5016682;28;20179;-84
2022/04/11 00:39:19;;;;;;;13.93;9.20;;;9.50;55.00;;;;;;5010528;28;20199;-84
2022/04/11 00:41:45;;;;;;;10.57;8.98;;;9.50;55.00;;;;;;4997604;28;20198;-84
2022/04/11 00:44:10;;;;;;;12.50;9.70;;;9.40;55.10;;;;;;4997298;28;20558;-84
2022/04/11 00:46:36;;;;;;;10.87;9.47;;;9.40;55.10;;;;;;4997966;28;20425;-84
2022/04/11 00:49:02;;;;;;;13.60;9.23;;;9.40;55.10;;;;;;4997657;28;20215;-84
2022/04/11 00:51:28;;;;;;;12.53;8.20;;;9.40;55.00;;;;;;5015584;28;20409;-83
2022/04/11 00:53:58;;;;;;;12.80;10.37;;;9.30;54.90;;;;;;5014227;28;20706;-84
2022/04/11 00:56:28;;;;;;;12.25;9.32;;;9.30;54.90;;;;;;5016091;28;20711;-84
2022/04/11 00:58:54;;;;;;;13.60;8.52;;;9.30;54.70;;;;;;4997788;28;20222;-85
2022/04/11 01:01:20;;;;;;;11.82;9.20;;;9.30;54.70;;;;;;4997955;28;20212;-84
2022/04/11 01:03:46;;;;;;;14.47;8.87;;;9.30;55.00;;;;;;4997770;28;20178;-84
2022/04/11 01:06:12;;;;;;;10.30;8.18;;;9.30;54.80;;;;;;4997964;28;20178;-85
2022/04/11 01:08:38;;;;;;;14.95;8.93;;;9.30;54.80;;;;;;4997759;28;20214;-84
2022/04/11 01:11:05;;;;;;;10.68;8.65;;;9.20;55.10;;;;;;5015365;28;20547;-84
2022/04/11 01:13:31;;;;;;;11.93;8.95;;;9.20;55.40;;;;;;4997068;28;20183;-84
2022/04/11 01:16:01;;;;;;;11.87;8.60;;;9.20;55.30;;;;;;4997615;28;20171;-84
2022/04/11 01:18:27;;;;;;;14.68;9.32;;;9.20;55.10;;;;;;4997355;28;20257;-84
2022/04/11 01:20:53;;;;;;;14.52;10.65;;;9.20;55.00;;;;;;4997335;28;20187;-84
2022/04/11 01:23:20;;;;;;;11.27;8.93;;;9.10;55.10;;;;;;4996706;28;20182;-84
2022/04/11 01:25:53;;;;;;;9.73;8.10;;;9.10;55.20;;;;;;5014858;28;20178;-84
2022/04/11 01:28:20;;;;;;;10.50;7.95;;;9.10;55.20;;;;;;5021111;28;20206;-84
2022/04/11 01:30:49;;;;;;;16.90;9.50;;;9.10;55.30;;;;;;4997957;28;20182;-84
2022/04/11 01:33:18;;;;;;;12.55;8.90;;;9.10;55.30;;;;;;5014778;28;20177;-85
2022/04/11 01:35:44;;;;;;;9.35;8.38;;;9.00;55.30;;;;;;4997462;28;20190;-84
2022/04/11 01:38:09;;;;;;;14.60;10.00;;;9.00;55.70;;;;;;4997689;28;20759;-84
2022/04/11 01:40:35;;;;;;;13.70;8.17;;;9.00;55.50;;;;;;4997423;28;20457;-84
2022/04/11 01:43:01;;;;;;;12.30;9.80;;;9.00;56.30;;;;;;4996823;28;20209;-85
2022/04/11 01:45:26;;;;;;;11.13;8.93;;;8.90;55.50;;;;;;5015134;28;20742;-84
2022/04/11 01:47:52;;;;;;;21.93;9.13;;;8.80;55.50;;;;;;5015186;28;20346;-84
2022/04/11 01:50:18;;;;;;;12.80;9.67;;;8.80;55.90;;;;;;4997784;28;20646;-84
2022/04/11 01:52:44;;;;;;;15.70;9.60;;;8.80;55.80;;;;;;5015226;28;20166;-84
2022/04/11 01:55:09;;;;;;;12.80;9.90;;;8.80;55.90;;;;;;5015496;28;20402;-84
2022/04/11 01:57:35;;;;;;;11.70;8.50;;;8.70;55.90;;;;;;4997968;28;20174;-85
2022/04/11 02:00:01;;;;;;;15.23;9.67;;;8.70;56.10;;;;;;5015992;28;20490;-84
2022/04/11 02:02:27;;;;;;;12.20;8.77;;;8.70;56.30;;;;;;5001631;28;20298;-84
2022/04/11 02:04:52;;;;;;;14.57;9.63;;;8.60;56.30;;;;;;4978732;28;20521;-84
2022/04/11 02:07:18;;;;;;;11.50;9.10;;;8.60;56.30;;;;;;4979300;28;20964;-84
2022/04/11 02:09:44;;;;;;;16.40;8.97;;;8.50;56.50;;;;;;4979142;28;20202;-84
2022/04/11 02:12:10;;;;;;;14.90;9.90;;;8.40;56.70;;;;;;4981985;28;20199;-84
2022/04/11 02:14:35;;;;;;;13.50;9.40;;;8.40;57.10;;;;;;4996583;28;20304;-84
2022/04/11 02:17:01;;;;;;;13.30;9.10;;;8.40;57.20;;;;;;4979027;28;20182;-85
2022/04/11 02:19:27;;;;;;;11.93;8.17;;;8.50;57.20;;;;;;4994121;28;20718;-83
2022/04/11 02:21:52;;;;;;;10.67;9.27;;;8.40;57.10;;;;;;4993417;28;20175;-84
2022/04/11 02:24:18;;;;;;;11.27;9.30;;;8.40;57.40;;;;;;4994046;28;20179;-84
2022/04/11 02:26:44;;;;;;;13.27;9.35;;;8.40;57.30;;;;;;4977478;28;20182;-84
2022/04/11 02:29:10;;;;;;;14.30;9.80;;;8.30;57.30;;;;;;4995115;28;20729;-84
2022/04/11 02:31:37;;;;;;;12.70;9.30;;;8.30;57.70;;;;;;4977593;28;20202;-84
2022/04/11 02:34:03;;;;;;;11.55;9.35;;;8.20;58.00;;;;;;4978099;28;20788;-84
2022/04/11 02:36:28;;;;;;;11.40;9.00;;;8.20;58.10;;;;;;4990566;28;20179;-83
2022/04/11 02:38:57;;;;;;;16.60;9.17;;;8.20;58.30;;;;;;5006906;28;20202;-84
2022/04/11 02:41:23;;;;;;;14.60;10.65;;;8.20;58.20;;;;;;5017138;28;20189;-85
2022/04/11 02:43:48;;;;;;;12.30;9.10;;;8.10;58.30;;;;;;5022845;28;20183;-83
2022/04/11 02:46:15;;;;;;;10.70;9.00;;;8.10;58.30;;;;;;5024518;28;20190;-84
2022/04/11 02:48:41;;;;;;;12.38;8.77;;;8.10;58.40;;;;;;5027726;28;20194;-84
2022/04/11 02:51:07;;;;;;;14.03;9.83;;;8.00;58.60;;;;;;4997858;28;20782;-84
2022/04/11 02:53:32;;;;;;;10.50;9.30;;;8.00;58.60;;;;;;5017411;28;20170;-83
2022/04/11 02:55:58;;;;;;;12.87;9.50;;;8.00;58.80;;;;;;5021550;28;20178;-84
2022/04/11 02:58:24;;;;;;;10.13;8.70;;;8.00;58.80;;;;;;5033709;28;21046;-83
2022/04/11 03:00:49;;;;;;;13.53;9.60;;;8.00;58.70;;;;;;5014613;28;20210;-85
2022/04/11 03:03:15;;;;;;;10.90;9.67;;;8.00;58.80;;;;;;5014302;28;20182;-84
2022/04/11 03:05:41;;;;;;;14.98;10.60;;;7.90;59.10;;;;;;4998101;28;20183;-83
2022/04/11 03:08:07;;;;;;;16.57;9.37;;;7.90;59.20;;;;;;4999403;28;20694;-83
2022/04/11 03:10:33;;;;;;;12.10;9.40;;;7.80;59.20;;;;;;5019958;28;20409;-84
2022/04/11 03:12:59;;;;;;;9.53;8.03;;;7.80;59.10;;;;;;5020144;28;20414;-83
2022/04/11 03:15:24;;;;;;;16.02;11.05;;;7.80;59.40;;;;;;5035521;28;20258;-84
2022/04/11 03:17:50;;;;;;;12.70;10.40;;;7.70;59.70;;;;;;5019192;28;20250;-84
2022/04/11 03:20:16;;;;;;;12.00;10.40;;;7.70;60.10;;;;;;5001863;28;20218;-83
2022/04/11 03:22:41;;;;;;;12.00;9.63;;;7.70;59.90;;;;;;5019203;28;20181;-84
2022/04/11 03:25:08;;;;;;;13.33;10.17;;;7.60;60.00;;;;;;5000669;28;20240;-84
2022/04/11 03:27:52;;;;;;;15.82;10.50;;;7.60;60.20;;;;;;4999418;28;20647;-83
2022/04/11 03:30:18;;;;;;;12.35;10.20;;;7.50;60.40;;;;;;5017275;28;20163;-83
2022/04/11 03:32:43;;;;;;;10.57;8.57;;;7.50;60.40;;;;;;4998704;28;20707;-84
2022/04/11 03:35:09;;;;;;;13.70;10.00;;;7.50;60.40;;;;;;4999115;28;20417;-84
2022/04/11 03:37:36;;;;;;;12.60;9.63;;;7.50;60.60;;;;;;4998751;28;20174;-84
2022/04/11 03:40:02;;;;;;;14.70;10.57;;;7.50;60.60;;;;;;5014974;28;20479;-83
2022/04/11 03:42:28;;;;;;;15.05;9.95;;;7.50;60.70;;;;;;4998442;28;20186;-84
2022/04/11 03:44:54;;;;;;;13.90;9.20;;;7.40;60.60;;;;;;5015372;28;20643;-84
2022/04/11 03:47:19;;;;;;;18.17;10.70;;;7.40;60.80;;;;;;5015544;28;20179;-84
2022/04/11 03:49:45;;;;;;;12.37;9.37;;;7.40;60.90;;;;;;4998926;28;20586;-84
2022/04/11 03:52:11;;;;;;;23.47;10.93;;;7.40;61.10;;;;;;5015159;28;20233;-83
2022/04/11 03:54:37;;;;;;;13.53;10.40;;;7.30;61.00;;;;;;5000144;28;20807;-83
2022/04/11 03:57:02;;;;;;;14.20;9.50;;;7.30;61.10;;;;;;5017386;28;20266;-84
2022/04/11 03:59:28;;;;;;;13.80;11.17;;;7.30;61.20;;;;;;5018136;28;20214;-84
2022/04/11 04:01:55;;;;;;;22.00;10.57;;;7.20;61.40;;;;;;5017479;28;20480;-84
2022/04/11 04:04:20;;;;;;;16.50;10.80;;;7.20;61.60;;;;;;5000103;28;20868;-84
2022/04/11 04:06:46;;;;;;;13.00;10.37;;;7.20;61.50;;;;;;4999982;28;20185;-84
2022/04/11 04:09:12;;;;;;;16.33;11.70;;;7.20;61.70;;;;;;4999589;28;20520;-85
2022/04/11 04:11:38;;;;;;;11.67;9.53;;;7.20;61.80;;;;;;5017572;28;20163;-84
2022/04/11 04:14:03;;;;;;;14.43;10.90;;;7.20;62.00;;;;;;5018014;28;20669;-84
2022/04/11 04:16:29;;;;;;;12.70;9.83;;;7.20;62.70;;;;;;4999872;28;20413;-84
2022/04/11 04:18:55;;;;;;;14.00;9.90;;;7.10;62.00;;;;;;4997899;28;20202;-85
2022/04/11 04:21:21;;;;;;;21.43;12.10;;;7.10;62.90;;;;;;4998644;28;20179;-84
2022/04/11 04:23:46;;;;;;;15.50;11.10;;;7.10;62.20;;;;;;4996823;28;20477;-87
2022/04/11 04:26:12;;;;;;;11.93;9.93;;;7.10;63.10;;;;;;4999980;28;20425;-84
2022/04/11 04:28:38;;;;;;;12.07;10.77;;;7.00;62.40;;;;;;4984616;28;20219;-84
2022/04/11 04:31:04;;;;;;;15.25;11.40;;;7.00;62.40;;;;;;4986354;28;20175;-84
2022/04/11 04:33:33;;;;;;;13.10;10.00;;;7.00;62.40;;;;;;5019564;28;20189;-85
2022/04/11 04:35:58;;;;;;;15.10;10.48;;;6.90;62.50;;;;;;5012703;28;20600;-83
2022/04/11 04:38:24;;;;;;;13.50;10.20;;;6.90;62.60;;;;;;5022717;28;20698;-84
2022/04/11 04:40:50;;;;;;;19.90;11.67;;;6.80;62.90;;;;;;5005421;28;20193;-84
2022/04/11 04:43:16;;;;;;;17.43;10.80;;;6.80;63.10;;;;;;5002550;28;20252;-84
2022/04/11 04:45:41;;;;;;;17.50;11.40;;;6.80;63.00;;;;;;4998774;28;20758;-85
2022/04/11 04:48:08;;;;;;;15.97;10.87;;;6.80;63.10;;;;;;5016379;28;20461;-84
2022/04/11 04:50:33;;;;;;;16.52;11.80;;;6.80;63.20;;;;;;4998876;28;20181;-85
2022/04/11 04:52:59;;;;;;;14.30;11.60;;;6.80;63.40;;;;;;4986794;28;20187;-84
2022/04/11 04:55:26;;;;;;;15.55;10.82;;;6.70;63.50;;;;;;4999449;28;20237;-84
2022/04/11 04:57:51;;;;;;;12.70;10.52;;;6.70;63.70;;;;;;4998184;28;20439;-84
2022/04/11 05:00:17;;;;;;;13.70;10.57;;;6.70;63.80;;;;;;4995211;28;20883;-84
2022/04/11 05:02:43;;;;;;;12.02;10.57;;;6.70;63.90;;;;;;4994959;28;20179;-84
2022/04/11 05:05:11;;;;;;;12.90;10.33;;;6.70;64.00;;;;;;4995092;28;20195;-84
2022/04/11 05:07:37;;;;;;;16.08;10.20;;;6.70;63.90;;;;;;4979036;28;20989;-84
2022/04/11 05:10:06;;;;;;;13.57;11.30;;;6.70;63.90;;;;;;4995314;28;20255;-85
2022/04/11 05:12:42;;;;;;;15.75;11.50;;;6.70;63.80;;;;;;4978444;28;20422;-85
2022/04/11 05:15:08;;;;;;;22.13;16.52;;;6.80;63.70;;;;;;4978198;28;20655;-85
2022/04/11 05:17:34;;;;;;;19.85;14.35;;;6.70;63.80;;;;;;4996123;28;20179;-85
2022/04/11 05:19:59;;;;;;;13.03;11.10;;;6.80;63.70;;;;;;4994411;28;20210;-84
2022/04/11 05:22:25;;;;;;;14.43;10.63;;;6.80;63.80;;;;;;4995562;28;20218;-85
2022/04/11 05:24:51;;;;;;;20.67;11.20;;;6.80;64.10;;;;;;4964173;28;20186;-84
2022/04/11 05:27:16;;;;;;;14.40;10.10;;;6.90;63.80;;;;;;4995648;28;20262;-85
2022/04/11 05:29:42;;;;;;;11.03;9.07;;;6.90;63.60;;;;;;4996658;28;20211;-84
2022/04/11 05:32:08;;;;;;;12.63;10.50;;;7.00;63.40;;;;;;4986546;28;20190;-85
2022/04/11 05:34:40;;;;;;;13.90;10.52;;;7.00;63.20;;;;;;4983774;28;20308;-84
2022/04/11 05:37:06;;;;;;;11.80;9.80;;;7.10;63.00;;;;;;5005926;28;20179;-84
2022/04/11 05:39:32;;;;;;;13.13;9.37;;;7.20;63.00;;;;;;4990665;28;20205;-85
2022/04/11 05:41:58;;;;;;;13.95;11.10;;;7.20;62.80;;;;;;4986514;28;20644;-85
2022/04/11 05:44:24;;;;;;;10.93;9.00;;;7.30;63.90;;;;;;4980482;28;20179;-84
2022/04/11 05:46:52;;;;;;;13.43;9.47;;;7.50;62.70;;;;;;4979672;28;20238;-85
2022/04/11 05:49:22;;;;;;;10.32;8.27;;;8.10;62.00;;;;;;4979493;28;20473;-85
2022/04/11 05:51:48;;;;;;;12.90;8.57;;;8.90;59.80;;;;;;4983250;28;20206;-85
2022/04/11 05:54:14;;;;;;;11.20;7.70;;;9.50;57.20;;;;;;5016893;28;20201;-84
2022/04/11 05:56:40;;;;;;;9.48;7.85;;;10.00;55.50;;;;;;4998519;28;20333;-84
2022/04/11 05:59:08;;;;;;;9.90;8.50;;;10.30;53.80;;;;;;5016456;28;20222;-85
2022/04/11 06:01:34;;;;;;;11.88;8.60;;;10.50;52.60;;;;;;4998636;28;20182;-84
2022/04/11 06:04:02;;;;;;;13.55;8.45;;;10.50;51.90;;;;;;4998575;28;20704;-85
2022/04/11 06:06:27;;;;;;;12.88;8.00;;;10.80;51.60;;;;;;5015399;28;20167;-84
2022/04/11 06:08:53;;;;;;;11.90;8.20;;;10.90;51.00;;;;;;4997432;28;20216;-85
2022/04/11 06:11:19;;;;;;;8.67;7.83;;;11.10;50.40;;;;;;4988081;28;20421;-85
2022/04/11 06:13:45;;;;;;;12.30;8.40;;;11.00;49.60;;;;;;5003582;28;20238;-86
2022/04/11 06:16:14;;;;;;;8.68;7.85;;;10.80;50.10;;;;;;4998109;28;20171;-84
2022/04/11 06:18:40;;;;;;;11.30;8.30;;;10.80;50.60;;;;;;4997470;28;20772;-84
2022/04/11 06:21:05;;;;;;;13.13;7.87;;;11.20;50.10;;;;;;5014713;28;20173;-85
2022/04/11 06:23:31;;;;;;;15.90;9.07;;;11.60;49.50;;;;;;4996881;28;20178;-86
2022/04/11 06:25:58;;;;;;;9.07;8.00;;;11.80;48.30;;;;;;4997385;28;20433;-84
2022/04/11 06:28:24;;;;;;;12.70;7.45;;;11.90;48.10;;;;;;4997371;28;20221;-86
2022/04/11 06:30:50;;;;;;;9.68;7.90;;;12.30;47.70;;;;;;4997588;28;20182;-84
2022/04/11 06:33:18;;;;;;;8.60;7.73;;;12.70;46.00;;;;;;5015490;28;20181;-85
2022/04/11 06:35:44;;;;;;;10.27;7.50;;;12.90;45.10;;;;;;4998692;28;20558;-86
2022/04/11 06:38:10;;;;;;;8.10;6.88;;;13.20;44.30;;;;;;4998840;28;20229;-84
2022/04/11 06:40:35;;;;;;;10.32;7.07;;;13.30;43.90;;;;;;4999598;28;20274;-87
2022/04/11 06:43:03;;;;;;;7.90;7.10;;;13.30;43.50;;;;;;4999224;28;20229;-85
2022/04/11 06:45:29;;;;;;;9.52;6.25;;;13.40;42.80;;;;;;4981412;28;20237;-85
2022/04/11 06:47:55;;;;;;;9.27;6.60;;;13.40;43.20;;;;;;5015166;28;20585;-84
2022/04/11 06:50:20;;;;;;;7.27;6.30;;;13.20;43.00;;;;;;5000304;28;20209;-85
2022/04/11 06:52:46;;;;;;;13.57;6.43;;;13.10;43.60;;;;;;5027848;28;20233;-84
2022/04/11 06:55:12;;;;;;;14.80;8.70;;;12.50;44.50;;;;;;5016679;28;20170;-84
2022/04/11 06:57:38;;;;;;;15.23;10.00;;;12.00;45.40;;;;;;4997650;28;20739;-85
2022/04/11 07:00:05;;;;;;;22.58;14.98;;;11.60;46.70;;;;;;5015227;28;20159;-85
2022/04/11 07:02:30;;;;;;;22.50;13.27;;;11.30;47.60;;;;;;4997203;28;20221;-85
2022/04/11 07:04:56;;;;;;;21.90;14.60;;;10.90;48.60;;;;;;5014264;28;20171;-85
2022/04/11 07:07:22;;;;;;;24.63;12.60;;;10.80;49.60;;;;;;4996576;28;20174;-85
2022/04/11 07:09:47;;;;;;;23.07;13.73;;;10.70;50.10;;;;;;5015109;28;20225;-85
2022/04/11 07:12:13;;;;;;;20.00;12.13;;;10.50;50.40;;;;;;4996996;28;20193;-86
2022/04/11 07:14:39;;;;;;;17.20;9.97;;;10.30;51.40;;;;;;4996179;28;20257;-85
2022/04/11 07:17:05;;;;;;;46.27;31.90;;;10.20;52.10;;;;;;4996452;28;20669;-84
2022/04/11 07:19:31;;;;;;;40.72;30.10;;;10.10;52.60;;;;;;4996462;28;20752;-87
2022/04/11 07:21:59;;;;;;;34.27;24.50;;;10.00;52.90;;;;;;4997427;28;20206;-84
2022/04/11 07:24:24;;;;;;;28.98;24.65;;;10.00;53.00;;;;;;4996058;28;20193;-84
2022/04/11 07:26:50;;;;;;;41.10;29.47;;;10.10;53.20;;;;;;5013646;28;20187;-84
2022/04/11 07:29:16;;;;;;;34.33;26.90;;;10.10;53.20;;;;;;4996018;28;20624;-85
2022/04/11 07:31:42;;;;;;;29.43;22.87;;;10.10;53.00;;;;;;4996000;28;20182;-84
2022/04/11 07:34:07;;;;;;;29.27;19.03;;;10.10;53.30;;;;;;5014341;28;20413;-86
2022/04/11 07:36:33;;;;;;;17.20;10.60;;;10.20;53.10;;;;;;5014729;28;20617;-85
2022/04/11 07:38:59;;;;;;;11.37;8.57;;;10.30;52.70;;;;;;4996222;28;21032;-85
2022/04/11 07:41:25;;;;;;;15.00;7.63;;;10.40;52.40;;;;;;5013590;28;20174;-85
2022/04/11 07:44:04;;;;;;;8.90;6.50;;;10.40;51.70;;;;;;4995718;28;20414;-85
2022/04/11 07:46:29;;;;;;;8.82;5.97;;;10.30;51.40;;;;;;5013941;28;20190;-84
2022/04/11 07:48:55;;;;;;;8.20;6.10;;;10.30;51.40;;;;;;4997257;28;20215;-84
2022/04/11 07:51:21;;;;;;;17.50;7.00;;;10.50;51.40;;;;;;4996760;28;20175;-84
2022/04/11 07:53:47;;;;;;;9.83;5.27;;;10.50;51.50;;;;;;4996972;28;20175;-84
2022/04/11 07:56:12;;;;;;;10.17;5.80;;;10.70;51.10;;;;;;5017623;28;20201;-85
2022/04/11 07:58:38;;;;;;;7.13;5.20;;;10.80;50.70;;;;;;4999268;28;20218;-85
2022/04/11 08:01:04;;;;;;;7.90;5.37;;;10.80;51.00;;;;;;4999824;28;20807;-84
2022/04/11 08:03:30;;;;;;;5.37;4.50;;;10.80;50.20;;;;;;4999791;28;20417;-84
2022/04/11 08:05:55;;;;;;;8.90;5.80;;;10.90;50.50;;;;;;5000097;28;20182;-84
2022/04/11 08:08:21;;;;;;;11.10;4.17;;;11.00;50.80;;;;;;5017055;28;20207;-84
2022/04/11 08:10:47;;;;;;;6.20;4.33;;;11.10;50.10;;;;;;5001194;28;20198;-87
2022/04/11 08:13:13;;;;;;;8.80;5.00;;;11.10;50.30;;;;;;5004538;28;20171;-84
2022/04/11 08:15:38;;;;;;;4.60;4.00;;;11.20;49.90;;;;;;5001448;28;20245;-84
2022/04/11 08:18:04;;;;;;;11.07;4.90;;;11.30;49.50;;;;;;5018289;28;21015;-84
2022/04/11 08:20:30;;;;;;;5.72;4.60;;;11.40;49.30;;;;;;5017552;28;20452;-84
2022/04/11 08:22:58;;;;;;;4.73;4.00;;;11.60;50.20;;;;;;5021460;28;20210;-85
2022/04/11 08:25:23;;;;;;;5.97;4.28;;;11.70;49.70;;;;;;4999635;28;20265;-84
2022/04/11 08:27:49;;;;;;;7.43;4.77;;;11.80;49.20;;;;;;4999682;28;20356;-84
2022/04/11 08:30:15;;;;;;;5.73;4.97;;;11.90;48.70;;;;;;5000621;28;20174;-85
2022/04/11 08:32:42;;;;;;;6.53;4.80;;;12.00;48.50;;;;;;4999561;28;20171;-84
2022/04/11 08:35:08;;;;;;;6.53;4.40;;;12.00;48.30;;;;;;4999982;28;20421;-85
2022/04/11 08:37:40;;;;;;;7.22;4.97;;;12.00;47.80;;;;;;5000625;28;20190;-84
2022/04/11 08:40:11;;;;;;;9.20;4.55;;;12.10;48.20;;;;;;5000729;28;20189;-84
2022/04/11 08:42:38;;;;;;;7.93;4.00;;;12.10;47.90;;;;;;5000375;28;20191;-84
2022/04/11 08:45:27;;;;;;;5.20;4.20;;;12.20;47.00;;;;;;5000600;28;20268;-85
2022/04/11 08:47:54;;;;;;;7.50;4.00;;;12.20;46.00;;;;;;5017381;28;20230;-84
2022/04/11 08:50:20;;;;;;;4.70;3.55;;;12.10;46.00;;;;;;5017010;28;20265;-84
2022/04/11 08:52:50;;;;;;;4.32;3.83;;;12.20;46.70;;;;;;5017126;28;20182;-84
2022/04/11 08:55:16;;;;;;;7.28;3.83;;;12.30;46.60;;;;;;5017074;28;20174;-84
2022/04/11 08:57:42;;;;;;;5.55;3.80;;;12.40;46.50;;;;;;4998937;28;20179;-84
2022/04/11 09:00:14;;;;;;;4.37;3.83;;;12.40;45.80;;;;;;4999399;28;20539;-84
2022/04/11 09:02:42;;;;;;;6.38;3.72;;;12.40;45.90;;;;;;4999509;28;20181;-84
2022/04/11 09:05:08;;;;;;;7.65;3.92;;;12.50;45.50;;;;;;4981966;28;20178;-85
2022/04/11 09:07:46;;;;;;;8.68;3.80;;;12.50;46.00;;;;;;4999332;28;20178;-84
2022/04/11 09:10:22;;;;;;;4.65;3.45;;;12.50;44.00;;;;;;5001369;28;20185;-85
2022/04/11 09:12:51;;;;;;;8.30;3.53;;;12.50;44.60;;;;;;5003368;28;20201;-85
2022/04/11 09:15:18;;;;;;;3.97;3.55;;;12.60;43.20;;;;;;5021710;28;20183;-85
2022/04/11 09:17:45;;;;;;;4.20;3.28;;;12.60;43.80;;;;;;4999580;28;20171;-84
2022/04/11 09:20:16;;;;;;;7.50;3.90;;;12.70;44.80;;;;;;4999807;28;20186;-85
2022/04/11 09:22:42;;;;;;;8.30;3.28;;;12.80;41.90;;;;;;4998419;28;20170;-86
2022/04/11 09:25:13;;;;;;;3.80;3.40;;;12.80;41.40;;;;;;4999048;28;20273;-85
2022/04/11 09:27:39;;;;;;;5.63;4.93;;;12.80;41.80;;;;;;5005791;28;20170;-85
2022/04/11 09:30:31;;;;;;;4.55;3.72;;;12.90;43.60;;;;;;5023802;28;20175;-86
2022/04/11 09:32:56;;;;;;;7.10;3.35;;;13.00;43.20;;;;;;5005939;28;20190;-86
2022/04/11 09:35:28;;;;;;;3.10;2.83;;;13.00;42.40;;;;;;5001996;28;20552;-87
2022/04/11 09:38:20;;;;;;;6.18;3.92;;;13.00;41.20;;;;;;5015783;28;20242;-86
2022/04/11 09:40:51;;;;;;;5.10;3.65;;;13.10;40.70;;;;;;4983417;28;20183;-87
2022/04/11 09:43:37;;;;;;;4.30;3.85;;;13.10;41.20;;;;;;4997907;28;20225;-86
2022/04/11 09:46:03;;;;;;;7.53;3.72;;;13.30;41.00;;;;;;5014901;28;20280;-86
2022/04/11 09:48:37;;;;;;;3.85;2.78;;;13.40;40.10;;;;;;5017088;28;20352;-86
2022/04/11 09:51:09;;;;;;;6.60;3.05;;;13.30;38.60;;;;;;5000340;28;20238;-87
2022/04/11 09:53:36;;;;;;;5.38;3.00;;;13.20;38.90;;;;;;4998648;28;20177;-86
2022/04/11 09:56:08;;;;;;;4.57;2.97;;;13.20;38.40;;;;;;5016917;28;20174;-86
2022/04/11 09:58:36;;;;;;;4.10;3.50;;;13.40;38.40;;;;;;5001475;28;20218;-86
2022/04/11 10:01:03;;;;;;;4.32;3.03;;;13.60;38.50;;;;;;4999400;28;20528;-86
2022/04/11 10:03:30;;;;;;;8.60;3.60;;;13.70;37.70;;;;;;4998196;28;20178;-86
2022/04/11 10:05:56;;;;;;;8.98;2.83;;;13.60;37.70;;;;;;5022923;28;20182;-85
2022/04/11 10:08:33;;;;;;;7.63;3.15;;;13.70;37.70;;;;;;5007013;28;20214;-85
2022/04/11 10:11:00;;;;;;;7.97;2.90;;;13.60;37.00;;;;;;5007294;28;20174;-85
2022/04/11 10:13:25;;;;;;;3.85;2.65;;;13.70;38.40;;;;;;5004105;28;20178;-85
2022/04/11 10:15:51;;;;;;;5.50;3.40;;;13.80;36.80;;;;;;5019771;28;20186;-85
2022/04/11 10:18:23;;;;;;;3.77;3.10;;;14.00;36.40;;;;;;5001384;28;20199;-86
2022/04/11 10:21:04;;;;;;;4.05;3.20;;;14.00;36.10;;;;;;5017943;28;20489;-86
2022/04/11 10:23:40;;;;;;;3.50;2.50;;;13.90;36.60;;;;;;5014204;28;20249;-89
2022/04/11 10:26:15;;;;;;;3.53;2.70;;;14.00;36.40;;;;;;5014545;28;20209;-89
2022/04/11 10:28:49;;;;;;;5.63;3.80;;;14.30;37.30;;;;;;4996066;28;20624;-88
2022/04/11 10:31:15;;;;;;;4.20;3.20;;;14.40;37.20;;;;;;4996349;28;20189;-89
2022/04/11 10:33:57;;;;;;;3.95;2.85;;;14.60;36.30;;;;;;4995559;28;20179;-89
2022/04/11 10:36:36;;;;;;;6.50;3.30;;;14.60;35.30;;;;;;4996210;28;20178;-89
2022/04/11 10:39:14;;;;;;;4.00;3.10;;;14.80;34.50;;;;;;4995675;28;20293;-88
2022/04/11 10:41:58;;;;;;;3.95;3.33;;;14.90;34.40;;;;;;5012126;28;20646;-88
2022/04/11 10:44:31;;;;;;;4.30;2.85;;;14.90;34.30;;;;;;5013043;28;20190;-89
2022/04/11 10:47:09;;;;;;;5.60;2.60;;;14.80;33.90;;;;;;5014330;28;20212;-88
2022/04/11 10:49:50;;;;;;;4.10;3.50;;;14.50;33.40;;;;;;5013659;28;20245;-89
2022/04/11 10:52:38;;;;;;;3.80;3.30;;;14.40;33.90;;;;;;5015149;28;20224;-89
2022/04/11 10:55:10;;;;;;;7.63;3.53;;;14.50;35.20;;;;;;5030219;28;20202;-88
2022/04/11 10:57:36;;;;;;;10.45;3.70;;;14.70;34.00;;;;;;4997621;28;20167;-89
2022/04/11 11:00:24;;;;;;;6.82;3.25;;;14.60;33.30;;;;;;4997199;28;20192;-89
2022/04/11 11:03:02;;;;;;;7.00;3.30;;;14.60;34.20;;;;;;4998382;28;20171;-89
2022/04/11 11:05:41;;;;;;;4.40;3.30;;;14.80;34.70;;;;;;4997787;28;20174;-89
2022/04/11 11:08:10;;;;;;;3.35;2.80;;;14.80;35.30;;;;;;4980621;28;20241;-88
2022/04/11 11:10:46;;;;;;;5.38;3.08;;;15.10;35.50;;;;;;5010399;28;20176;-88
2022/04/11 11:13:35;;;;;;;4.80;2.85;;;15.20;34.00;;;;;;4996499;28;20254;-88
2022/04/11 11:16:21;;;;;;;5.43;2.78;;;15.40;32.90;;;;;;5007853;28;20611;-88
2022/04/11 11:18:50;;;;;;;4.60;2.60;;;15.30;31.40;;;;;;4978618;28;20294;-88
2022/04/11 11:21:37;;;;;;;5.38;3.10;;;15.20;31.60;;;;;;4995747;28;20187;-89
2022/04/11 11:24:10;;;;;;;6.40;3.75;;;15.10;32.00;;;;;;4994676;28;20241;-90
2022/04/11 11:27:10;;;;;;;3.03;2.72;;;15.00;32.30;;;;;;4994808;28;20183;-89
2022/04/11 11:29:40;;;;;;;4.47;3.15;;;15.10;33.10;;;;;;4940054;28;20233;-89
2022/04/11 11:32:12;;;;;;;7.38;3.22;;;15.10;33.20;;;;;;5000168;28;20581;-89
2022/04/11 11:34:52;;;;;;;3.70;2.92;;;15.20;33.30;;;;;;4981849;28;20167;-88
2022/04/11 11:37:18;;;;;;;4.38;3.30;;;15.20;32.60;;;;;;4980757;28;20206;-88
2022/04/11 11:39:45;;;;;;;5.80;2.83;;;15.00;32.00;;;;;;5000868;28;20566;-88
2022/04/11 11:42:15;;;;;;;5.63;3.05;;;15.00;32.40;;;;;;5000656;28;20372;-87
2022/04/11 11:44:50;;;;;;;3.97;3.03;;;15.10;32.60;;;;;;5017277;28;20186;-88
2022/04/11 11:47:25;;;;;;;5.03;3.33;;;15.30;33.50;;;;;;5017514;28;20181;-88
2022/04/11 11:49:51;;;;;;;8.30;3.55;;;15.40;32.10;;;;;;5018097;28;20256;-88
2022/04/11 11:52:18;;;;;;;7.00;3.90;;;15.40;31.80;;;;;;5018929;28;20265;-88
2022/04/11 11:54:46;;;;;;;7.63;3.80;;;15.50;32.30;;;;;;5020065;28;20444;-88
2022/04/11 11:57:32;;;;;;;6.05;4.35;;;15.40;31.70;;;;;;5021061;28;20266;-89
2022/04/11 12:00:03;;;;;;;6.70;4.28;;;15.40;32.20;;;;;;5021636;28;20240;-89
2022/04/11 12:05:24;;;;;;;4.50;3.92;;;15.40;32.60;;;;;;5025441;28;20686;-88
2022/04/11 12:08:13;;;;;;;6.93;3.92;;;15.50;33.40;;;;;;5020817;28;20217;-89
2022/04/11 12:10:43;;;;;;;4.45;3.85;;;15.60;32.80;;;;;;5000443;28;20177;-89
2022/04/11 12:13:10;;;;;;;6.90;4.25;;;15.60;32.10;;;;;;5016082;28;20205;-89
2022/04/11 12:15:36;;;;;;;3.60;3.05;;;15.60;31.80;;;;;;5001884;28;20182;-89
2022/04/11 12:18:07;;;;;;;5.22;3.85;;;15.60;33.10;;;;;;5016172;28;20284;-89
2022/04/11 12:20:34;;;;;;;6.53;4.03;;;15.70;32.50;;;;;;5017997;28;20279;-89
2022/04/11 12:23:04;;;;;;;4.05;3.10;;;15.80;31.90;;;;;;5017272;28;20216;-89
2022/04/11 12:25:36;;;;;;;4.18;3.45;;;15.80;32.50;;;;;;5019199;28;20183;-88
2022/04/11 12:28:18;;;;;;;6.47;3.28;;;16.00;31.20;;;;;;5017314;28;20206;-88
2022/04/11 12:30:50;;;;;;;5.90;3.95;;;16.00;31.70;;;;;;5017853;28;20193;-89
2022/04/11 12:33:33;;;;;;;7.68;3.22;;;16.10;32.60;;;;;;5016494;28;20179;-89
2022/04/11 12:36:05;;;;;;;4.80;3.97;;;16.30;33.20;;;;;;5003733;28;20178;-88
2022/04/11 12:38:46;;;;;;;4.15;3.35;;;16.30;32.70;;;;;;5001848;28;20206;-89
2022/04/11 12:41:34;;;;;;;4.15;3.30;;;16.40;31.40;;;;;;5016755;28;20185;-88
2022/04/11 12:44:09;;;;;;;5.72;3.55;;;16.40;30.90;;;;;;5024170;28;20205;-89
2022/04/11 12:46:46;;;;;;;5.43;3.47;;;16.50;32.70;;;;;;5027719;28;20146;-87
2022/04/11 12:49:18;;;;;;;6.90;4.00;;;16.60;33.00;;;;;;5017927;28;20202;-89
2022/04/11 12:52:05;;;;;;;5.45;3.63;;;16.60;31.90;;;;;;5031937;28;20209;-89